sensor_id;sensor_type;location;lat;lon;timestamp;temperature;humidity
17715;DHT22;8977;50.902;4.314;2023-02-01T00:00:26;9.70;99.90
17715;DHT22;8977;50.902;4.314;2023-02-01T00:02:55;9.70;99.90
17715;DHT22;8977;50.902;4.314;2023-02-01T00:05:22;9.70;99.90
17715;DHT22;8977;50.902;4.314;2023-02-01T00:07:48;9.80;99.90
17715;DHT22;8977;50.902;4.314;2023-02-01T00:10:16;9.70;99.90
17715;DHT22;8977;50.902;4.314;2023-02-01T00:12:43;9.70;99.90
17715;DHT22;8977;50.902;4.314;2023-02-01T00:15:10;9.70;99.90
17715;DHT22;8977;50.902;4.314;2023-02-01T00:17:37;9.60;99.90
17715;DHT22;8977;50.902;4.314;2023-02-01T00:20:06;9.60;99.90
17715;DHT22;8977;50.902;4.314;2023-02-01T00:22:34;9.70;99.90
17715;DHT22;8977;50.902;4.314;2023-02-01T00:25:01;9.70;99.90
17715;DHT22;8977;50.902;4.314;2023-02-01T00:27:28;9.60;99.90
17715;DHT22;8977;50.902;4.314;2023-02-01T00:29:55;9.60;99.90
17715;DHT22;8977;50.902;4.314;2023-02-01T00:32:22;9.70;99.90
17715;DHT22;8977;50.902;4.314;2023-02-01T00:34:48;9.70;99.90
17715;DHT22;8977;50.902;4.314;2023-02-01T00:37:17;9.70;99.90
17715;DHT22;8977;50.902;4.314;2023-02-01T00:39:43;9.70;99.90
17715;DHT22;8977;50.902;4.314;2023-02-01T00:42:10;9.70;99.90
17715;DHT22;8977;50.902;4.314;2023-02-01T00:44:37;9.80;99.90
17715;DHT22;8977;50.902;4.314;2023-02-01T00:47:04;9.70;99.90
17715;DHT22;8977;50.902;4.314;2023-02-01T00:49:31;9.80;99.90
17715;DHT22;8977;50.902;4.314;2023-02-01T00:51:58;9.80;99.90
17715;DHT22;8977;50.902;4.314;2023-02-01T00:54:26;9.70;99.90
17715;DHT22;8977;50.902;4.314;2023-02-01T00:56:53;9.70;99.90
17715;DHT22;8977;50.902;4.314;2023-02-01T00:59:20;9.70;99.90
17715;DHT22;8977;50.902;4.314;2023-02-01T01:01:47;9.70;99.90
17715;DHT22;8977;50.902;4.314;2023-02-01T01:04:13;9.60;99.90
17715;DHT22;8977;50.902;4.314;2023-02-01T01:06:40;9.70;99.90
17715;DHT22;8977;50.902;4.314;2023-02-01T01:09:07;9.70;99.90
17715;DHT22;8977;50.902;4.314;2023-02-01T01:11:36;9.60;99.90
17715;DHT22;8977;50.902;4.314;2023-02-01T01:14:05;9.70;99.90
17715;DHT22;8977;50.902;4.314;2023-02-01T01:16:33;9.60;99.90
17715;DHT22;8977;50.902;4.314;2023-02-01T01:19:00;9.70;99.90
17715;DHT22;8977;50.902;4.314;2023-02-01T01:21:28;9.60;99.90
17715;DHT22;8977;50.902;4.314;2023-02-01T01:23:55;9.60;99.90
17715;DHT22;8977;50.902;4.314;2023-02-01T01:26:24;9.70;99.90
17715;DHT22;8977;50.902;4.314;2023-02-01T01:28:54;9.70;99.90
17715;DHT22;8977;50.902;4.314;2023-02-01T01:31:21;9.60;99.90
17715;DHT22;8977;50.902;4.314;2023-02-01T01:33:48;9.70;99.90
17715;DHT22;8977;50.902;4.314;2023-02-01T01:36:16;9.70;99.90
17715;DHT22;8977;50.902;4.314;2023-02-01T01:38:43;9.60;99.90
17715;DHT22;8977;50.902;4.314;2023-02-01T01:41:13;9.60;99.90
17715;DHT22;8977;50.902;4.314;2023-02-01T01:43:48;9.70;99.90
17715;DHT22;8977;50.902;4.314;2023-02-01T01:46:18;9.60;99.90
17715;DHT22;8977;50.902;4.314;2023-02-01T01:48:46;9.60;99.90
17715;DHT22;8977;50.902;4.314;2023-02-01T01:51:15;9.60;99.90
17715;DHT22;8977;50.902;4.314;2023-02-01T01:53:49;9.60;99.90
17715;DHT22;8977;50.902;4.314;2023-02-01T01:56:17;9.60;99.90
17715;DHT22;8977;50.902;4.314;2023-02-01T01:58:44;9.60;99.90
17715;DHT22;8977;50.902;4.314;2023-02-01T02:01:11;9.70;99.90
17715;DHT22;8977;50.902;4.314;2023-02-01T02:03:41;9.60;99.90
17715;DHT22;8977;50.902;4.314;2023-02-01T02:06:14;9.60;99.90
17715;DHT22;8977;50.902;4.314;2023-02-01T02:08:41;9.60;99.90
17715;DHT22;8977;50.902;4.314;2023-02-01T02:11:10;9.70;99.90
17715;DHT22;8977;50.902;4.314;2023-02-01T02:13:41;9.60;99.90
17715;DHT22;8977;50.902;4.314;2023-02-01T02:16:28;9.50;99.90
17715;DHT22;8977;50.902;4.314;2023-02-01T02:22:19;9.50;99.90
17715;DHT22;8977;50.902;4.314;2023-02-01T02:25:22;9.50;99.90
17715;DHT22;8977;50.902;4.314;2023-02-01T02:28:02;9.50;99.90
17715;DHT22;8977;50.902;4.314;2023-02-01T02:30:44;9.50;99.90
17715;DHT22;8977;50.902;4.314;2023-02-01T02:33:45;9.50;99.90
17715;DHT22;8977;50.902;4.314;2023-02-01T02:36:20;9.60;99.90
17715;DHT22;8977;50.902;4.314;2023-02-01T02:38:57;9.60;99.90
17715;DHT22;8977;50.902;4.314;2023-02-01T02:41:32;9.50;99.90
17715;DHT22;8977;50.902;4.314;2023-02-01T02:44:23;9.50;99.90
17715;DHT22;8977;50.902;4.314;2023-02-01T02:47:15;9.50;99.90
17715;DHT22;8977;50.902;4.314;2023-02-01T02:49:58;9.50;99.90
17715;DHT22;8977;50.902;4.314;2023-02-01T02:52:50;9.50;99.90
17715;DHT22;8977;50.902;4.314;2023-02-01T02:55:36;9.50;99.90
17715;DHT22;8977;50.902;4.314;2023-02-01T02:58:07;9.40;99.90
17715;DHT22;8977;50.902;4.314;2023-02-01T03:00:52;9.50;99.90
17715;DHT22;8977;50.902;4.314;2023-02-01T03:03:38;9.50;99.90
17715;DHT22;8977;50.902;4.314;2023-02-01T03:06:24;9.50;99.90
17715;DHT22;8977;50.902;4.314;2023-02-01T03:08:54;9.50;99.90
17715;DHT22;8977;50.902;4.314;2023-02-01T03:11:23;9.50;99.90
17715;DHT22;8977;50.902;4.314;2023-02-01T03:14:13;9.40;99.90
17715;DHT22;8977;50.902;4.314;2023-02-01T03:16:45;9.50;99.90
17715;DHT22;8977;50.902;4.314;2023-02-01T03:19:17;9.40;99.90
17715;DHT22;8977;50.902;4.314;2023-02-01T03:21:50;9.50;99.90
17715;DHT22;8977;50.902;4.314;2023-02-01T03:24:22;9.40;99.90
17715;DHT22;8977;50.902;4.314;2023-02-01T03:27:02;9.40;99.90
17715;DHT22;8977;50.902;4.314;2023-02-01T03:29:36;9.40;99.90
17715;DHT22;8977;50.902;4.314;2023-02-01T03:32:05;9.40;99.90
17715;DHT22;8977;50.902;4.314;2023-02-01T03:34:32;9.30;99.90
17715;DHT22;8977;50.902;4.314;2023-02-01T03:37:04;9.40;99.90
17715;DHT22;8977;50.902;4.314;2023-02-01T03:39:35;9.30;99.90
17715;DHT22;8977;50.902;4.314;2023-02-01T03:42:05;9.40;99.90
17715;DHT22;8977;50.902;4.314;2023-02-01T03:44:37;9.40;99.90
17715;DHT22;8977;50.902;4.314;2023-02-01T03:47:07;9.40;99.90
17715;DHT22;8977;50.902;4.314;2023-02-01T03:49:37;9.30;99.90
17715;DHT22;8977;50.902;4.314;2023-02-01T03:52:09;9.30;99.90
17715;DHT22;8977;50.902;4.314;2023-02-01T03:54:38;9.30;99.90
17715;DHT22;8977;50.902;4.314;2023-02-01T03:57:09;9.40;99.90
17715;DHT22;8977;50.902;4.314;2023-02-01T03:59:39;9.40;99.90
17715;DHT22;8977;50.902;4.314;2023-02-01T04:02:06;9.40;99.90
17715;DHT22;8977;50.902;4.314;2023-02-01T04:04:34;9.40;99.90
17715;DHT22;8977;50.902;4.314;2023-02-01T04:07:01;9.40;99.90
17715;DHT22;8977;50.902;4.314;2023-02-01T04:09:30;9.40;99.90
17715;DHT22;8977;50.902;4.314;2023-02-01T04:11:56;9.30;99.90
17715;DHT22;8977;50.902;4.314;2023-02-01T04:14:23;9.30;99.90
17715;DHT22;8977;50.902;4.314;2023-02-01T04:16:51;9.30;99.90
17715;DHT22;8977;50.902;4.314;2023-02-01T04:19:18;9.30;99.90
17715;DHT22;8977;50.902;4.314;2023-02-01T04:21:45;9.30;99.90
17715;DHT22;8977;50.902;4.314;2023-02-01T04:24:12;9.30;99.90
17715;DHT22;8977;50.902;4.314;2023-02-01T04:26:40;9.40;99.90
17715;DHT22;8977;50.902;4.314;2023-02-01T04:29:08;9.30;99.90
17715;DHT22;8977;50.902;4.314;2023-02-01T04:31:36;9.30;99.90
17715;DHT22;8977;50.902;4.314;2023-02-01T04:34:02;9.30;99.90
17715;DHT22;8977;50.902;4.314;2023-02-01T04:36:29;9.20;99.90
17715;DHT22;8977;50.902;4.314;2023-02-01T04:38:56;9.20;99.90
17715;DHT22;8977;50.902;4.314;2023-02-01T04:41:23;9.30;99.90
17715;DHT22;8977;50.902;4.314;2023-02-01T04:43:51;9.20;99.90
17715;DHT22;8977;50.902;4.314;2023-02-01T04:46:18;9.20;99.90
17715;DHT22;8977;50.902;4.314;2023-02-01T04:48:45;9.30;99.90
17715;DHT22;8977;50.902;4.314;2023-02-01T04:51:12;9.20;99.90
17715;DHT22;8977;50.902;4.314;2023-02-01T04:53:40;9.20;99.90
17715;DHT22;8977;50.902;4.314;2023-02-01T04:56:07;9.30;99.90
17715;DHT22;8977;50.902;4.314;2023-02-01T04:58:34;9.20;99.90
17715;DHT22;8977;50.902;4.314;2023-02-01T05:01:03;9.20;99.90
17715;DHT22;8977;50.902;4.314;2023-02-01T05:03:30;9.20;99.90
17715;DHT22;8977;50.902;4.314;2023-02-01T05:05:58;9.10;99.90
17715;DHT22;8977;50.902;4.314;2023-02-01T05:08:26;9.10;99.90
17715;DHT22;8977;50.902;4.314;2023-02-01T05:10:54;9.10;99.90
17715;DHT22;8977;50.902;4.314;2023-02-01T05:13:21;9.10;99.90
17715;DHT22;8977;50.902;4.314;2023-02-01T05:16:07;9.00;99.90
17715;DHT22;8977;50.902;4.314;2023-02-01T05:18:34;9.10;99.90
17715;DHT22;8977;50.902;4.314;2023-02-01T05:21:01;9.10;99.90
17715;DHT22;8977;50.902;4.314;2023-02-01T05:23:28;9.10;99.90
17715;DHT22;8977;50.902;4.314;2023-02-01T05:25:58;9.00;99.90
17715;DHT22;8977;50.902;4.314;2023-02-01T05:28:26;9.10;99.90
17715;DHT22;8977;50.902;4.314;2023-02-01T05:30:53;9.10;99.90
17715;DHT22;8977;50.902;4.314;2023-02-01T05:33:21;9.10;99.90
17715;DHT22;8977;50.902;4.314;2023-02-01T05:35:48;9.00;99.90
17715;DHT22;8977;50.902;4.314;2023-02-01T05:38:15;9.00;99.90
17715;DHT22;8977;50.902;4.314;2023-02-01T05:40:43;9.00;99.90
17715;DHT22;8977;50.902;4.314;2023-02-01T05:43:15;9.00;99.90
17715;DHT22;8977;50.902;4.314;2023-02-01T05:45:42;9.00;99.90
17715;DHT22;8977;50.902;4.314;2023-02-01T05:48:09;9.00;99.90
17715;DHT22;8977;50.902;4.314;2023-02-01T05:50:37;9.00;99.90
17715;DHT22;8977;50.902;4.314;2023-02-01T05:53:04;9.00;99.90
17715;DHT22;8977;50.902;4.314;2023-02-01T05:55:31;9.00;99.90
17715;DHT22;8977;50.902;4.314;2023-02-01T05:57:58;8.90;99.90
17715;DHT22;8977;50.902;4.314;2023-02-01T06:00:25;8.80;99.90
17715;DHT22;8977;50.902;4.314;2023-02-01T06:02:52;8.90;99.90
17715;DHT22;8977;50.902;4.314;2023-02-01T06:05:19;8.80;99.90
17715;DHT22;8977;50.902;4.314;2023-02-01T06:07:47;8.90;99.90
17715;DHT22;8977;50.902;4.314;2023-02-01T06:10:15;8.90;99.90
17715;DHT22;8977;50.902;4.314;2023-02-01T06:12:42;8.90;99.90
17715;DHT22;8977;50.902;4.314;2023-02-01T06:15:10;8.90;99.90
17715;DHT22;8977;50.902;4.314;2023-02-01T06:17:37;8.80;99.90
17715;DHT22;8977;50.902;4.314;2023-02-01T06:20:07;8.80;99.90
17715;DHT22;8977;50.902;4.314;2023-02-01T06:22:34;8.80;99.90
17715;DHT22;8977;50.902;4.314;2023-02-01T06:25:03;8.80;99.90
17715;DHT22;8977;50.902;4.314;2023-02-01T06:27:30;8.80;99.90
17715;DHT22;8977;50.902;4.314;2023-02-01T06:29:57;8.80;99.90
17715;DHT22;8977;50.902;4.314;2023-02-01T06:32:24;8.80;99.90
17715;DHT22;8977;50.902;4.314;2023-02-01T06:34:51;8.90;99.90
17715;DHT22;8977;50.902;4.314;2023-02-01T06:37:18;8.80;99.90
17715;DHT22;8977;50.902;4.314;2023-02-01T06:39:45;8.90;99.90
17715;DHT22;8977;50.902;4.314;2023-02-01T06:42:13;8.90;99.90
17715;DHT22;8977;50.902;4.314;2023-02-01T06:44:40;8.80;99.90
17715;DHT22;8977;50.902;4.314;2023-02-01T06:47:07;8.90;99.90
17715;DHT22;8977;50.902;4.314;2023-02-01T06:49:34;8.80;99.90
17715;DHT22;8977;50.902;4.314;2023-02-01T06:52:01;8.90;99.90
17715;DHT22;8977;50.902;4.314;2023-02-01T06:54:30;8.80;99.90
17715;DHT22;8977;50.902;4.314;2023-02-01T06:56:59;8.80;99.90
17715;DHT22;8977;50.902;4.314;2023-02-01T06:59:27;8.80;99.90
17715;DHT22;8977;50.902;4.314;2023-02-01T07:01:53;8.80;99.90
17715;DHT22;8977;50.902;4.314;2023-02-01T07:04:20;8.80;99.90
17715;DHT22;8977;50.902;4.314;2023-02-01T07:06:47;8.80;99.90
17715;DHT22;8977;50.902;4.314;2023-02-01T07:09:14;8.80;99.90
17715;DHT22;8977;50.902;4.314;2023-02-01T07:11:41;8.80;99.90
17715;DHT22;8977;50.902;4.314;2023-02-01T07:14:09;9.00;99.90
17715;DHT22;8977;50.902;4.314;2023-02-01T07:16:37;8.90;99.90
17715;DHT22;8977;50.902;4.314;2023-02-01T07:19:04;8.80;99.90
17715;DHT22;8977;50.902;4.314;2023-02-01T07:21:31;8.80;99.90
17715;DHT22;8977;50.902;4.314;2023-02-01T07:23:58;8.80;99.90
17715;DHT22;8977;50.902;4.314;2023-02-01T07:26:25;8.80;99.90
17715;DHT22;8977;50.902;4.314;2023-02-01T07:28:52;8.80;99.90
17715;DHT22;8977;50.902;4.314;2023-02-01T07:31:19;8.80;99.90
17715;DHT22;8977;50.902;4.314;2023-02-01T07:33:49;8.80;99.90
17715;DHT22;8977;50.902;4.314;2023-02-01T07:36:17;8.80;99.90
17715;DHT22;8977;50.902;4.314;2023-02-01T07:38:44;8.90;99.90
17715;DHT22;8977;50.902;4.314;2023-02-01T07:41:12;8.80;99.90
17715;DHT22;8977;50.902;4.314;2023-02-01T07:43:39;8.80;99.90
17715;DHT22;8977;50.902;4.314;2023-02-01T07:46:06;8.80;99.90
17715;DHT22;8977;50.902;4.314;2023-02-01T07:48:33;8.70;99.90
17715;DHT22;8977;50.902;4.314;2023-02-01T07:51:03;8.80;99.90
17715;DHT22;8977;50.902;4.314;2023-02-01T07:53:32;8.90;99.90
17715;DHT22;8977;50.902;4.314;2023-02-01T07:55:59;8.90;99.90
17715;DHT22;8977;50.902;4.314;2023-02-01T07:58:27;8.90;99.90
17715;DHT22;8977;50.902;4.314;2023-02-01T08:00:54;8.90;99.90
17715;DHT22;8977;50.902;4.314;2023-02-01T08:03:39;8.90;99.90
17715;DHT22;8977;50.902;4.314;2023-02-01T08:06:08;8.90;99.90
17715;DHT22;8977;50.902;4.314;2023-02-01T08:08:34;8.90;99.90
17715;DHT22;8977;50.902;4.314;2023-02-01T08:11:03;9.00;99.90
17715;DHT22;8977;50.902;4.314;2023-02-01T08:13:31;8.90;99.90
17715;DHT22;8977;50.902;4.314;2023-02-01T08:15:58;8.90;99.90
17715;DHT22;8977;50.902;4.314;2023-02-01T08:18:25;8.90;99.90
17715;DHT22;8977;50.902;4.314;2023-02-01T08:20:53;8.90;99.90
17715;DHT22;8977;50.902;4.314;2023-02-01T08:23:21;8.90;99.90
17715;DHT22;8977;50.902;4.314;2023-02-01T08:25:48;8.80;99.90
17715;DHT22;8977;50.902;4.314;2023-02-01T08:28:15;8.90;99.90
17715;DHT22;8977;50.902;4.314;2023-02-01T08:30:42;8.90;99.90
17715;DHT22;8977;50.902;4.314;2023-02-01T08:33:09;8.90;99.90
17715;DHT22;8977;50.902;4.314;2023-02-01T08:35:38;8.90;99.90
17715;DHT22;8977;50.902;4.314;2023-02-01T08:38:05;8.90;99.90
17715;DHT22;8977;50.902;4.314;2023-02-01T08:40:33;8.90;99.90
17715;DHT22;8977;50.902;4.314;2023-02-01T08:43:00;9.00;99.90
17715;DHT22;8977;50.902;4.314;2023-02-01T08:45:28;8.90;99.90
17715;DHT22;8977;50.902;4.314;2023-02-01T08:47:55;9.00;99.90
17715;DHT22;8977;50.902;4.314;2023-02-01T08:50:23;9.00;99.90
17715;DHT22;8977;50.902;4.314;2023-02-01T08:52:50;9.10;99.90
17715;DHT22;8977;50.902;4.314;2023-02-01T08:55:17;9.10;99.90
17715;DHT22;8977;50.902;4.314;2023-02-01T08:57:46;9.10;99.90
17715;DHT22;8977;50.902;4.314;2023-02-01T09:00:15;9.00;99.90
17715;DHT22;8977;50.902;4.314;2023-02-01T09:02:42;9.00;99.90
17715;DHT22;8977;50.902;4.314;2023-02-01T09:05:09;9.10;99.90
17715;DHT22;8977;50.902;4.314;2023-02-01T09:07:36;9.10;99.90
17715;DHT22;8977;50.902;4.314;2023-02-01T09:10:04;9.20;99.90
17715;DHT22;8977;50.902;4.314;2023-02-01T09:12:31;9.20;99.90
17715;DHT22;8977;50.902;4.314;2023-02-01T09:15:00;9.10;99.90
17715;DHT22;8977;50.902;4.314;2023-02-01T09:17:27;9.20;99.90
17715;DHT22;8977;50.902;4.314;2023-02-01T09:19:54;9.20;99.90
17715;DHT22;8977;50.902;4.314;2023-02-01T09:22:21;9.30;99.90
17715;DHT22;8977;50.902;4.314;2023-02-01T09:24:48;9.30;99.90
17715;DHT22;8977;50.902;4.314;2023-02-01T09:27:15;9.30;99.90
17715;DHT22;8977;50.902;4.314;2023-02-01T09:29:42;9.30;99.90
17715;DHT22;8977;50.902;4.314;2023-02-01T09:32:10;9.20;99.90
17715;DHT22;8977;50.902;4.314;2023-02-01T09:34:37;9.20;99.90
17715;DHT22;8977;50.902;4.314;2023-02-01T09:37:03;9.30;99.90
17715;DHT22;8977;50.902;4.314;2023-02-01T09:39:30;9.30;99.90
17715;DHT22;8977;50.902;4.314;2023-02-01T09:42:05;9.40;99.90
17715;DHT22;8977;50.902;4.314;2023-02-01T09:44:43;9.40;99.90
17715;DHT22;8977;50.902;4.314;2023-02-01T09:47:16;9.40;99.90
17715;DHT22;8977;50.902;4.314;2023-02-01T09:49:49;9.50;99.90
17715;DHT22;8977;50.902;4.314;2023-02-01T09:52:22;9.50;99.90
17715;DHT22;8977;50.902;4.314;2023-02-01T09:54:53;9.50;99.90
17715;DHT22;8977;50.902;4.314;2023-02-01T09:57:24;9.50;99.90
17715;DHT22;8977;50.902;4.314;2023-02-01T09:59:56;9.50;99.90
17715;DHT22;8977;50.902;4.314;2023-02-01T10:02:27;9.50;99.90
17715;DHT22;8977;50.902;4.314;2023-02-01T10:04:58;9.50;99.90
17715;DHT22;8977;50.902;4.314;2023-02-01T10:07:33;9.50;99.90
17715;DHT22;8977;50.902;4.314;2023-02-01T10:10:09;9.60;99.90
17715;DHT22;8977;50.902;4.314;2023-02-01T10:12:53;9.60;99.90
17715;DHT22;8977;50.902;4.314;2023-02-01T10:15:47;9.60;99.90
17715;DHT22;8977;50.902;4.314;2023-02-01T10:18:36;9.60;99.90
17715;DHT22;8977;50.902;4.314;2023-02-01T10:21:12;9.70;99.90
17715;DHT22;8977;50.902;4.314;2023-02-01T10:24:02;9.70;99.90
17715;DHT22;8977;50.902;4.314;2023-02-01T10:26:33;9.80;99.90
17715;DHT22;8977;50.902;4.314;2023-02-01T10:29:02;9.90;99.90
17715;DHT22;8977;50.902;4.314;2023-02-01T10:31:35;10.00;99.90
17715;DHT22;8977;50.902;4.314;2023-02-01T10:34:15;9.90;99.90
17715;DHT22;8977;50.902;4.314;2023-02-01T10:36:50;9.90;99.90
17715;DHT22;8977;50.902;4.314;2023-02-01T10:39:19;9.90;99.90
17715;DHT22;8977;50.902;4.314;2023-02-01T10:41:47;10.00;99.90
17715;DHT22;8977;50.902;4.314;2023-02-01T10:44:16;10.00;99.90
17715;DHT22;8977;50.902;4.314;2023-02-01T10:46:43;10.10;99.90
17715;DHT22;8977;50.902;4.314;2023-02-01T10:49:17;10.10;99.90
17715;DHT22;8977;50.902;4.314;2023-02-01T10:51:47;10.20;99.90
17715;DHT22;8977;50.902;4.314;2023-02-01T10:54:19;10.20;99.90
17715;DHT22;8977;50.902;4.314;2023-02-01T10:56:47;10.20;99.90
17715;DHT22;8977;50.902;4.314;2023-02-01T10:59:17;10.40;99.90
17715;DHT22;8977;50.902;4.314;2023-02-01T11:01:46;10.30;99.90
17715;DHT22;8977;50.902;4.314;2023-02-01T11:04:15;10.40;99.90
17715;DHT22;8977;50.902;4.314;2023-02-01T11:06:45;10.30;99.90
17715;DHT22;8977;50.902;4.314;2023-02-01T11:09:18;10.40;99.90
17715;DHT22;8977;50.902;4.314;2023-02-01T11:11:55;10.40;99.90
17715;DHT22;8977;50.902;4.314;2023-02-01T11:14:30;10.50;99.90
17715;DHT22;8977;50.902;4.314;2023-02-01T11:17:00;10.50;99.90
17715;DHT22;8977;50.902;4.314;2023-02-01T11:19:29;10.40;99.90
17715;DHT22;8977;50.902;4.314;2023-02-01T11:21:59;10.40;99.90
17715;DHT22;8977;50.902;4.314;2023-02-01T11:24:31;10.50;99.90
17715;DHT22;8977;50.902;4.314;2023-02-01T11:27:00;10.50;99.90
17715;DHT22;8977;50.902;4.314;2023-02-01T11:29:35;10.50;99.90
17715;DHT22;8977;50.902;4.314;2023-02-01T11:32:03;10.60;99.90
17715;DHT22;8977;50.902;4.314;2023-02-01T11:34:37;10.60;99.90
17715;DHT22;8977;50.902;4.314;2023-02-01T11:37:05;10.50;99.90
17715;DHT22;8977;50.902;4.314;2023-02-01T11:39:40;10.50;99.90
17715;DHT22;8977;50.902;4.314;2023-02-01T11:42:14;10.50;99.90
17715;DHT22;8977;50.902;4.314;2023-02-01T11:44:43;10.40;99.90
17715;DHT22;8977;50.902;4.314;2023-02-01T11:47:19;10.40;99.90
17715;DHT22;8977;50.902;4.314;2023-02-01T11:49:48;10.40;99.90
17715;DHT22;8977;50.902;4.314;2023-02-01T11:52:21;10.40;99.90
17715;DHT22;8977;50.902;4.314;2023-02-01T11:55:07;10.40;99.90
17715;DHT22;8977;50.902;4.314;2023-02-01T11:57:48;10.50;99.90
17715;DHT22;8977;50.902;4.314;2023-02-01T12:00:33;10.50;99.90
17715;DHT22;8977;50.902;4.314;2023-02-01T12:03:40;10.60;99.90
17715;DHT22;8977;50.902;4.314;2023-02-01T12:06:18;10.60;99.90
17715;DHT22;8977;50.902;4.314;2023-02-01T12:09:06;10.60;99.90
17715;DHT22;8977;50.902;4.314;2023-02-01T12:11:52;10.60;99.90
17715;DHT22;8977;50.902;4.314;2023-02-01T12:14:33;10.60;99.90
17715;DHT22;8977;50.902;4.314;2023-02-01T12:17:30;10.70;99.90
17715;DHT22;8977;50.902;4.314;2023-02-01T12:20:14;10.70;99.90
17715;DHT22;8977;50.902;4.314;2023-02-01T12:22:54;10.70;99.90
17715;DHT22;8977;50.902;4.314;2023-02-01T12:25:38;10.70;99.90
17715;DHT22;8977;50.902;4.314;2023-02-01T12:28:25;10.70;99.90
17715;DHT22;8977;50.902;4.314;2023-02-01T12:34:12;10.80;99.90
17715;DHT22;8977;50.902;4.314;2023-02-01T12:36:47;10.80;99.90
17715;DHT22;8977;50.902;4.314;2023-02-01T12:39:23;10.90;99.90
17715;DHT22;8977;50.902;4.314;2023-02-01T12:41:58;10.90;99.90
17715;DHT22;8977;50.902;4.314;2023-02-01T12:44:39;11.00;99.90
17715;DHT22;8977;50.902;4.314;2023-02-01T12:47:14;11.00;99.90
17715;DHT22;8977;50.902;4.314;2023-02-01T12:49:51;11.00;99.90
17715;DHT22;8977;50.902;4.314;2023-02-01T12:52:25;11.10;99.90
17715;DHT22;8977;50.902;4.314;2023-02-01T12:54:57;11.10;99.90
17715;DHT22;8977;50.902;4.314;2023-02-01T12:57:30;11.20;99.90
17715;DHT22;8977;50.902;4.314;2023-02-01T13:00:06;11.20;99.90
17715;DHT22;8977;50.902;4.314;2023-02-01T13:02:39;11.20;99.90
17715;DHT22;8977;50.902;4.314;2023-02-01T13:05:15;11.20;99.90
17715;DHT22;8977;50.902;4.314;2023-02-01T13:07:47;11.30;99.90
17715;DHT22;8977;50.902;4.314;2023-02-01T13:10:20;11.30;99.90
17715;DHT22;8977;50.902;4.314;2023-02-01T13:12:53;11.40;99.90
17715;DHT22;8977;50.902;4.314;2023-02-01T13:15:24;11.40;99.90
17715;DHT22;8977;50.902;4.314;2023-02-01T13:17:55;11.40;99.90
17715;DHT22;8977;50.902;4.314;2023-02-01T13:20:29;11.40;99.90
17715;DHT22;8977;50.902;4.314;2023-02-01T13:23:00;11.50;99.90
17715;DHT22;8977;50.902;4.314;2023-02-01T13:25:35;11.50;99.90
17715;DHT22;8977;50.902;4.314;2023-02-01T13:28:06;11.60;99.90
17715;DHT22;8977;50.902;4.314;2023-02-01T13:30:50;11.50;99.90
17715;DHT22;8977;50.902;4.314;2023-02-01T13:33:34;11.60;99.90
17715;DHT22;8977;50.902;4.314;2023-02-01T13:36:32;11.60;99.90
17715;DHT22;8977;50.902;4.314;2023-02-01T13:39:24;11.60;99.90
17715;DHT22;8977;50.902;4.314;2023-02-01T13:41:56;11.60;99.90
17715;DHT22;8977;50.902;4.314;2023-02-01T13:44:28;11.70;99.90
17715;DHT22;8977;50.902;4.314;2023-02-01T13:46:59;11.70;99.90
17715;DHT22;8977;50.902;4.314;2023-02-01T13:49:29;11.70;99.90
17715;DHT22;8977;50.902;4.314;2023-02-01T13:51:58;11.70;99.90
17715;DHT22;8977;50.902;4.314;2023-02-01T13:54:30;11.70;99.90
17715;DHT22;8977;50.902;4.314;2023-02-01T13:57:00;11.70;99.90
17715;DHT22;8977;50.902;4.314;2023-02-01T13:59:50;11.70;99.90
17715;DHT22;8977;50.902;4.314;2023-02-01T14:05:56;11.50;99.90
17715;DHT22;8977;50.902;4.314;2023-02-01T14:08:43;11.50;99.90
17715;DHT22;8977;50.902;4.314;2023-02-01T14:11:33;11.50;99.90
17715;DHT22;8977;50.902;4.314;2023-02-01T14:17:34;11.40;99.90
17715;DHT22;8977;50.902;4.314;2023-02-01T14:23:25;11.30;99.90
17715;DHT22;8977;50.902;4.314;2023-02-01T14:26:04;11.20;99.90
17715;DHT22;8977;50.902;4.314;2023-02-01T14:28:34;11.20;99.90
17715;DHT22;8977;50.902;4.314;2023-02-01T14:31:18;11.20;99.90
17715;DHT22;8977;50.902;4.314;2023-02-01T14:33:49;11.30;99.90
17715;DHT22;8977;50.902;4.314;2023-02-01T14:36:21;11.20;99.90
17715;DHT22;8977;50.902;4.314;2023-02-01T14:38:50;11.20;99.90
17715;DHT22;8977;50.902;4.314;2023-02-01T14:41:26;11.10;99.90
17715;DHT22;8977;50.902;4.314;2023-02-01T14:44:24;11.20;99.90
17715;DHT22;8977;50.902;4.314;2023-02-01T14:47:34;11.20;99.90
17715;DHT22;8977;50.902;4.314;2023-02-01T14:50:13;11.10;99.90
17715;DHT22;8977;50.902;4.314;2023-02-01T14:52:46;11.10;99.90
17715;DHT22;8977;50.902;4.314;2023-02-01T14:55:16;11.10;99.90
17715;DHT22;8977;50.902;4.314;2023-02-01T14:57:46;11.00;99.90
17715;DHT22;8977;50.902;4.314;2023-02-01T15:00:20;11.00;99.90
17715;DHT22;8977;50.902;4.314;2023-02-01T15:02:50;11.00;99.90
17715;DHT22;8977;50.902;4.314;2023-02-01T15:05:26;11.00;99.90
17715;DHT22;8977;50.902;4.314;2023-02-01T15:07:55;11.00;99.90
17715;DHT22;8977;50.902;4.314;2023-02-01T15:10:24;11.00;99.90
17715;DHT22;8977;50.902;4.314;2023-02-01T15:12:51;11.10;99.90
17715;DHT22;8977;50.902;4.314;2023-02-01T15:15:20;11.10;99.90
17715;DHT22;8977;50.902;4.314;2023-02-01T15:17:53;11.10;99.90
17715;DHT22;8977;50.902;4.314;2023-02-01T15:20:23;11.00;99.90
17715;DHT22;8977;50.902;4.314;2023-02-01T15:22:55;11.00;99.90
17715;DHT22;8977;50.902;4.314;2023-02-01T15:25:24;11.00;99.90
17715;DHT22;8977;50.902;4.314;2023-02-01T15:27:51;11.00;99.90
17715;DHT22;8977;50.902;4.314;2023-02-01T15:30:20;11.00;99.90
17715;DHT22;8977;50.902;4.314;2023-02-01T15:32:48;11.00;99.90
17715;DHT22;8977;50.902;4.314;2023-02-01T15:35:39;11.00;99.90
17715;DHT22;8977;50.902;4.314;2023-02-01T15:38:37;11.10;99.90
17715;DHT22;8977;50.902;4.314;2023-02-01T15:41:09;10.90;99.90
17715;DHT22;8977;50.902;4.314;2023-02-01T15:43:41;10.90;99.90
17715;DHT22;8977;50.902;4.314;2023-02-01T15:46:11;11.00;99.90
17715;DHT22;8977;50.902;4.314;2023-02-01T15:48:47;10.90;99.90
17715;DHT22;8977;50.902;4.314;2023-02-01T15:51:19;10.90;99.90
17715;DHT22;8977;50.902;4.314;2023-02-01T15:53:52;10.90;99.90
17715;DHT22;8977;50.902;4.314;2023-02-01T15:56:24;10.90;99.90
17715;DHT22;8977;50.902;4.314;2023-02-01T15:58:54;10.90;99.90
17715;DHT22;8977;50.902;4.314;2023-02-01T16:01:22;10.90;99.90
17715;DHT22;8977;50.902;4.314;2023-02-01T16:03:49;10.90;99.90
17715;DHT22;8977;50.902;4.314;2023-02-01T16:06:31;10.90;99.90
17715;DHT22;8977;50.902;4.314;2023-02-01T16:09:02;10.90;99.90
17715;DHT22;8977;50.902;4.314;2023-02-01T16:11:30;10.80;99.90
17715;DHT22;8977;50.902;4.314;2023-02-01T16:13:58;10.90;99.90
17715;DHT22;8977;50.902;4.314;2023-02-01T16:16:25;11.00;99.90
17715;DHT22;8977;50.902;4.314;2023-02-01T16:18:52;11.00;99.90
17715;DHT22;8977;50.902;4.314;2023-02-01T16:21:19;11.00;99.90
17715;DHT22;8977;50.902;4.314;2023-02-01T16:23:50;10.90;99.90
17715;DHT22;8977;50.902;4.314;2023-02-01T16:26:17;10.90;99.90
17715;DHT22;8977;50.902;4.314;2023-02-01T16:28:44;11.00;99.90
17715;DHT22;8977;50.902;4.314;2023-02-01T16:31:12;11.00;99.90
17715;DHT22;8977;50.902;4.314;2023-02-01T16:33:45;10.90;99.90
17715;DHT22;8977;50.902;4.314;2023-02-01T16:36:13;11.00;99.90
17715;DHT22;8977;50.902;4.314;2023-02-01T16:38:40;10.80;99.90
17715;DHT22;8977;50.902;4.314;2023-02-01T16:41:11;10.80;99.90